Time;durP1;ratioP1;P1;durP2;ratioP2;P2;SDS_P1;SDS_P2;PMS_P1;PMS_P2;Temp;Humidity;BMP_temperature;BMP_pressure;BME280_temperature;BME280_humidity;BME280_pressure;Samples;Min_cycle;Max_cycle;Signal;HPM_P1;HPM_P2
2021/04/07 00:02:27;;;;;;;21.25;10.30;;;;;;;5.83;59.76;100251.55;1642768;87;21800;-59
2021/04/07 00:05:08;;;;;;;18.27;9.98;;;;;;;5.88;59.81;100246.07;1623521;88;21735;-59
2021/04/07 00:07:49;;;;;;;16.57;10.25;;;;;;;5.95;59.49;100246.00;1616053;89;21204;-59
2021/04/07 00:10:18;;;;;;;12.15;8.20;;;;;;;6.01;59.52;100241.23;1676621;85;21802;-59
2021/04/07 00:12:51;;;;;;;15.53;8.60;;;;;;;6.07;59.77;100232.16;1676961;85;21319;-59
2021/04/07 00:15:24;;;;;;;17.65;10.25;;;;;;;6.09;59.81;100233.70;1675969;85;21810;-59
2021/04/07 00:17:57;;;;;;;21.55;11.03;;;;;;;6.13;59.83;100234.34;1677288;85;21871;-59
2021/04/07 00:20:31;;;;;;;21.30;10.93;;;;;;;6.19;60.25;100237.79;1677351;85;21153;-59
2021/04/07 00:23:05;;;;;;;21.53;11.73;;;;;;;6.24;60.77;100228.36;1676853;85;21279;-59
2021/04/07 00:25:38;;;;;;;17.45;9.50;;;;;;;6.30;61.15;100220.14;1677029;85;21268;-59
2021/04/07 00:28:11;;;;;;;32.73;12.25;;;;;;;6.32;61.64;100215.19;1677042;85;21835;-59
2021/04/07 00:30:45;;;;;;;31.20;11.50;;;;;;;6.34;61.91;100207.27;1675831;85;21746;-59
2021/04/07 00:33:18;;;;;;;25.97;11.90;;;;;;;6.33;62.33;100215.53;1677333;85;21830;-59
2021/04/07 00:35:52;;;;;;;32.75;12.98;;;;;;;6.36;62.80;100211.42;1676810;85;21161;-59
2021/04/07 00:38:25;;;;;;;38.25;13.22;;;;;;;6.42;63.24;100211.00;1676971;85;21490;-59
2021/04/07 00:40:58;;;;;;;31.75;13.08;;;;;;;6.46;63.38;100195.98;1679189;85;21192;-59
2021/04/07 00:43:31;;;;;;;24.55;11.65;;;;;;;6.46;63.49;100195.52;1650802;87;21343;-59
2021/04/07 00:46:04;;;;;;;21.05;10.70;;;;;;;6.45;63.63;100188.65;1653786;86;21282;-60
2021/04/07 00:48:38;;;;;;;16.50;9.68;;;;;;;6.44;63.64;100183.56;1652843;86;21719;-60
2021/04/07 00:51:13;;;;;;;15.35;9.18;;;;;;;6.42;63.86;100186.76;1652529;86;21286;-60
2021/04/07 00:53:46;;;;;;;16.25;9.10;;;;;;;6.32;63.96;100178.80;1653002;87;21267;-59
2021/04/07 00:56:19;;;;;;;15.25;9.50;;;;;;;6.27;63.93;100182.66;1653079;86;21220;-59
2021/04/07 00:58:52;;;;;;;17.10;10.27;;;;;;;6.24;63.96;100184.17;1653323;86;21312;-60
2021/04/07 01:01:25;;;;;;;16.02;10.05;;;;;;;6.22;63.97;100186.89;1653235;86;21794;-60
2021/04/07 01:03:58;;;;;;;17.15;10.25;;;;;;;6.19;64.18;100191.00;1652666;86;21208;-60
2021/04/07 01:06:33;;;;;;;15.63;9.70;;;;;;;6.18;64.50;100192.42;1652026;87;21687;-61
2021/04/07 01:09:07;;;;;;;18.82;10.30;;;;;;;6.14;64.69;100184.00;1634963;87;21367;-62
2021/04/07 01:11:40;;;;;;;20.85;10.75;;;;;;;6.07;65.01;100164.12;1651585;87;21322;-60
2021/04/07 01:14:13;;;;;;;15.87;9.63;;;;;;;6.05;65.47;100159.51;1652810;87;21269;-60
2021/04/07 01:16:46;;;;;;;20.92;10.78;;;;;;;6.02;65.78;100158.88;1652862;87;22018;-60
2021/04/07 01:19:20;;;;;;;18.23;10.18;;;;;;;5.95;66.05;100148.10;1653021;87;21331;-60
2021/04/07 01:21:54;;;;;;;14.28;8.75;;;;;;;5.91;66.16;100138.04;1652644;87;21145;-59
2021/04/07 01:24:27;;;;;;;17.75;10.18;;;;;;;5.88;66.21;100140.84;1652768;87;21283;-59
2021/04/07 01:27:00;;;;;;;20.13;10.43;;;;;;;5.85;66.49;100135.40;1652496;87;21354;-59
2021/04/07 01:29:34;;;;;;;13.53;8.48;;;;;;;5.86;66.55;100142.73;1653146;87;21256;-60
2021/04/07 01:32:07;;;;;;;16.90;9.70;;;;;;;5.84;66.48;100141.55;1652853;87;21280;-60
2021/04/07 01:34:45;;;;;;;11.57;7.87;;;;;;;5.82;66.43;100148.59;1652984;87;21850;-59
2021/04/07 01:37:18;;;;;;;16.73;8.30;;;;;;;5.82;66.39;100149.89;1652522;87;21783;-60
2021/04/07 01:39:51;;;;;;;15.32;8.65;;;;;;;5.85;66.43;100146.29;1652685;87;21315;-60
2021/04/07 01:42:26;;;;;;;19.80;8.90;;;;;;;5.88;66.60;100136.49;1652389;87;21332;-60
2021/04/07 01:44:59;;;;;;;15.93;9.53;;;;;;;5.91;66.71;100131.08;1649066;86;21418;-60
2021/04/07 01:47:33;;;;;;;13.88;9.05;;;;;;;5.90;66.83;100116.88;1643694;87;21856;-60
2021/04/07 01:50:08;;;;;;;11.78;8.08;;;;;;;5.90;66.83;100116.88;1643560;87;21206;-60
2021/04/07 01:52:41;;;;;;;11.25;7.75;;;;;;;5.92;66.88;100120.23;1643589;87;21325;-59
2021/04/07 01:55:16;;;;;;;13.28;7.28;;;;;;;5.95;66.86;100109.13;1643526;87;21278;-59
2021/04/07 01:57:49;;;;;;;18.45;8.43;;;;;;;5.99;66.76;100107.16;1643688;87;21809;-60
2021/04/07 02:00:23;;;;;;;15.50;8.60;;;;;;;6.02;66.74;100098.66;1643768;87;22027;-59
2021/04/07 02:02:56;;;;;;;16.02;8.88;;;;;;;6.00;66.57;100095.34;1643575;87;21321;-59
2021/04/07 02:05:30;;;;;;;13.00;8.58;;;;;;;6.01;66.62;100094.87;1644134;87;21727;-59
2021/04/07 02:08:03;;;;;;;16.48;9.10;;;;;;;6.03;66.55;100095.13;1643783;87;21775;-59
2021/04/07 02:10:36;;;;;;;14.93;9.40;;;;;;;6.05;66.49;100086.74;1643945;87;21171;-59
2021/04/07 02:13:10;;;;;;;14.23;8.40;;;;;;;6.07;66.63;100089.22;1642071;87;21768;-59
2021/04/07 02:15:44;;;;;;;14.63;8.23;;;;;;;6.10;66.67;100089.84;1643813;87;21796;-59
2021/04/07 02:18:17;;;;;;;12.73;8.03;;;;;;;6.15;66.64;100080.87;1643360;87;21928;-60
2021/04/07 02:20:51;;;;;;;13.22;8.33;;;;;;;6.20;66.65;100087.39;1642768;87;21183;-60
2021/04/07 02:23:24;;;;;;;13.47;8.97;;;;;;;6.23;66.70;100077.25;1643894;87;21733;-60
2021/04/07 02:25:57;;;;;;;15.93;9.38;;;;;;;6.27;66.60;100088.61;1643651;87;21891;-60
2021/04/07 02:28:31;;;;;;;14.20;8.68;;;;;;;6.32;66.53;100093.46;1643947;87;21211;-60
2021/04/07 02:31:06;;;;;;;12.90;8.45;;;;;;;6.37;66.52;100092.19;1643626;87;21174;-61
2021/04/07 02:33:39;;;;;;;12.70;8.68;;;;;;;6.42;66.52;100090.08;1643605;87;21780;-60
2021/04/07 02:36:12;;;;;;;16.67;9.70;;;;;;;6.45;66.64;100085.93;1643645;87;21163;-59
2021/04/07 02:38:45;;;;;;;18.33;9.97;;;;;;;6.50;66.89;100085.59;1643885;87;21321;-59
2021/04/07 02:41:18;;;;;;;18.67;10.40;;;;;;;6.52;67.09;100081.93;1644191;87;22054;-58
2021/04/07 02:43:52;;;;;;;17.48;10.63;;;;;;;6.54;67.27;100084.44;1601176;89;21337;-60
2021/04/07 02:46:25;;;;;;;16.12;10.82;;;;;;;6.56;67.47;100076.05;1665373;84;21707;-58
2021/04/07 02:48:58;;;;;;;17.75;10.38;;;;;;;6.56;67.69;100057.37;1686220;85;21348;-58
2021/04/07 02:51:31;;;;;;;15.30;9.37;;;;;;;6.54;67.98;100043.63;1686645;85;21699;-58
2021/04/07 02:54:05;;;;;;;18.55;11.43;;;;;;;6.47;68.40;100052.83;1666729;85;21207;-60
2021/04/07 02:56:38;;;;;;;22.13;11.38;;;;;;;6.45;68.61;100053.42;1677761;85;21149;-59
2021/04/07 02:59:11;;;;;;;24.98;11.93;;;;;;;6.46;68.87;100062.06;1683962;85;21278;-60
2021/04/07 03:01:44;;;;;;;22.63;12.60;;;;;;;6.47;68.92;100055.44;1684698;85;22117;-60
2021/04/07 03:04:17;;;;;;;23.00;14.10;;;;;;;6.51;68.92;100058.65;1676973;85;21298;-58
2021/04/07 03:06:50;;;;;;;21.23;13.38;;;;;;;6.51;68.90;100051.69;1645472;87;22522;-63
2021/04/07 03:09:23;;;;;;;16.20;10.05;;;;;;;6.57;68.94;100036.06;1688602;84;21984;-61
2021/04/07 03:11:57;;;;;;;17.62;11.12;;;;;;;6.59;68.93;100038.11;1686519;85;21161;-62
2021/04/07 03:14:30;;;;;;;15.58;10.05;;;;;;;6.57;68.98;100039.50;1640624;87;21184;-62
2021/04/07 03:17:06;;;;;;;15.58;9.18;;;;;;;6.60;68.91;100033.24;1650814;86;21157;-63
2021/04/07 03:19:39;;;;;;;15.35;10.18;;;;;;;6.62;68.92;100032.19;1653245;86;21881;-62
2021/04/07 03:22:12;;;;;;;16.90;9.85;;;;;;;6.64;68.98;100028.16;1652461;86;21275;-61
2021/04/07 03:24:45;;;;;;;15.63;11.43;;;;;;;6.67;68.94;100030.06;1652656;87;21204;-61
2021/04/07 03:27:18;;;;;;;;;;;;;;;6.69;68.84;100011.73;1688275;84;22008;-62
2021/04/07 03:29:52;;;;;;;16.85;10.28;;;;;;;6.70;68.86;100009.49;1686368;85;20174;-62
2021/04/07 03:32:26;;;;;;;16.50;11.03;;;;;;;6.71;69.06;99998.95;1686412;85;21303;-63
2021/04/07 03:34:59;;;;;;;16.50;10.35;;;;;;;6.77;69.19;100006.31;1686067;85;21168;-62
2021/04/07 03:37:33;;;;;;;19.30;11.08;;;;;;;6.84;69.04;100013.63;1686210;85;21284;-62
2021/04/07 03:40:07;;;;;;;16.17;10.85;;;;;;;6.90;68.89;100007.50;1686176;85;21326;-62
2021/04/07 03:42:40;;;;;;;17.12;10.78;;;;;;;6.96;68.57;100006.17;1686180;85;21272;-62
2021/04/07 03:45:14;;;;;;;17.23;10.58;;;;;;;6.98;68.34;100005.11;1686586;85;21814;-63
2021/04/07 03:47:47;;;;;;;16.15;10.93;;;;;;;7.02;68.27;100019.53;1651767;87;21267;-63
2021/04/07 03:50:20;;;;;;;19.02;11.20;;;;;;;7.04;68.06;100031.98;1610671;87;21258;-63
2021/04/07 03:52:53;;;;;;;17.47;11.43;;;;;;;7.07;67.66;100019.20;1643685;87;21191;-63
2021/04/07 03:55:27;;;;;;;13.03;8.88;;;;;;;7.09;67.64;100005.59;1642593;87;22138;-63
2021/04/07 03:58:00;;;;;;;14.33;10.47;;;;;;;7.11;67.53;99994.11;1642873;87;21281;-61
2021/04/07 04:00:33;;;;;;;15.70;10.45;;;;;;;7.14;67.37;99974.32;1642875;87;21226;-62
2021/04/07 04:03:10;;;;;;;18.33;11.20;;;;;;;7.15;67.58;99968.65;1642778;87;21744;-63
2021/04/07 04:05:43;;;;;;;16.05;9.95;;;;;;;7.15;67.55;99957.77;1640692;87;21337;-63
2021/04/07 04:08:17;;;;;;;20.97;10.83;;;;;;;7.17;67.59;99949.36;1641206;87;21210;-64
2021/04/07 04:10:50;;;;;;;16.20;10.93;;;;;;;7.21;67.42;99957.27;1639434;87;21403;-64
2021/04/07 04:13:24;;;;;;;15.65;10.08;;;;;;;7.25;67.35;99965.68;1640944;87;21721;-63
2021/04/07 04:15:59;;;;;;;14.47;10.95;;;;;;;7.30;67.20;99958.33;1643492;87;21271;-63
2021/04/07 04:18:32;;;;;;;16.82;10.65;;;;;;;7.35;67.13;99964.84;1643465;87;21730;-63
2021/04/07 04:21:07;;;;;;;18.48;11.73;;;;;;;7.40;67.00;99956.66;1643435;87;21295;-63
2021/04/07 04:23:40;;;;;;;16.83;11.03;;;;;;;7.47;66.97;99963.02;1643640;87;21844;-63
2021/04/07 04:26:13;;;;;;;15.60;10.18;;;;;;;7.50;66.98;99966.66;1643089;87;21340;-63
2021/04/07 04:28:47;;;;;;;18.25;11.08;;;;;;;7.52;67.19;99969.99;1640361;87;21983;-62
2021/04/07 04:31:20;;;;;;;16.45;10.63;;;;;;;7.55;67.74;99954.59;1639403;87;22109;-62
2021/04/07 04:33:53;;;;;;;19.87;11.73;;;;;;;7.54;68.47;99958.14;1639915;87;21257;-63
2021/04/07 04:36:26;;;;;;;22.65;12.85;;;;;;;7.52;69.22;99951.76;1637767;87;22322;-61
2021/04/07 04:43:09;;;;;;;18.82;11.28;;;;;;;7.52;69.77;99951.76;1638224;87;21680;-62
2021/04/07 04:45:42;;;;;;;;;;;;;;;7.50;69.73;99939.81;1598112;89;22096;-62
2021/04/07 04:48:15;;;;;;;17.57;10.75;;;;;;;7.51;69.91;99937.06;1638003;87;20193;-62
2021/04/07 04:50:49;;;;;;;13.90;10.30;;;;;;;7.51;70.08;99934.46;1644187;85;21236;-62
2021/04/07 04:53:22;;;;;;;15.18;9.70;;;;;;;7.50;70.33;99940.61;1648561;87;21215;-65
2021/04/07 05:00:07;;;;;;;15.10;10.05;;;;;;;7.51;70.85;99959.67;1648708;86;21184;-70
2021/04/07 05:06:50;;;;;;;14.47;10.45;;;;;;;7.48;70.91;99934.70;1648109;85;21240;-62
2021/04/07 05:09:23;;;;;;;15.98;9.30;;;;;;;7.44;71.05;99912.00;1647957;87;21227;-61
2021/04/07 05:11:57;;;;;;;13.05;9.38;;;;;;;7.46;70.97;99908.80;1648116;87;21267;-67
2021/04/07 05:14:31;;;;;;;12.90;8.98;;;;;;;7.49;70.83;99916.84;1648488;87;22012;-63
2021/04/07 05:17:04;;;;;;;12.18;9.03;;;;;;;7.52;70.80;99910.55;1648207;87;22074;-68
2021/04/07 05:19:38;;;;;;;16.57;10.58;;;;;;;7.53;70.74;99899.16;1648029;87;21208;-64
2021/04/07 05:22:12;;;;;;;14.75;10.60;;;;;;;7.57;70.75;99892.77;1648724;87;21346;-69
2021/04/07 05:24:45;;;;;;;13.68;10.15;;;;;;;7.59;70.49;99902.12;1648433;87;21539;-69
2021/04/07 05:27:18;;;;;;;13.60;9.77;;;;;;;7.61;70.32;99897.60;1647942;87;21555;-67
2021/04/07 05:29:52;;;;;;;13.65;9.10;;;;;;;7.63;70.28;99889.65;1647591;87;21524;-70
2021/04/07 05:32:25;;;;;;;14.47;9.83;;;;;;;7.65;70.35;99891.65;1648860;87;21247;-67
2021/04/07 05:34:59;;;;;;;15.32;8.90;;;;;;;7.67;70.47;99893.17;1648463;87;21471;-64
2021/04/07 05:37:32;;;;;;;15.75;9.90;;;;;;;7.70;70.64;99886.89;1648597;87;21376;-66
2021/04/07 05:40:07;;;;;;;13.45;10.28;;;;;;;7.70;70.76;99877.77;1647566;87;21212;-66
2021/04/07 05:42:40;;;;;;;13.78;10.13;;;;;;;7.67;71.02;99874.94;1621848;87;21427;-66
2021/04/07 05:45:14;;;;;;;;;;;;;;;7.63;71.52;99884.44;1650519;87;22029;-59
2021/04/07 05:51:57;;;;;;;14.15;9.95;;;;;;;7.59;72.38;99885.66;1671273;84;21184;-63
2021/04/07 05:54:30;;;;;;;13.85;7.55;;;;;;;7.64;72.87;99891.31;1677886;85;21224;-66
2021/04/07 05:57:03;;;;;;;15.37;9.83;;;;;;;7.66;73.04;99887.63;1677332;85;21223;-66
2021/04/07 05:59:36;;;;;;;13.40;9.63;;;;;;;7.65;73.27;99883.36;1676957;85;21459;-72
2021/04/07 06:02:09;;;;;;;14.75;10.23;;;;;;;7.65;73.35;99881.23;1680219;85;21184;-64
2021/04/07 06:04:42;;;;;;;14.57;10.23;;;;;;;7.66;73.33;99883.73;1677303;84;21350;-63
2021/04/07 06:07:16;;;;;;;16.57;10.95;;;;;;;7.67;73.45;99876.24;1676302;85;21328;-61
2021/04/07 06:10:27;;;;;;;18.75;10.78;;;;;;;7.66;73.76;99878.98;1677352;85;22022;-71
2021/04/07 06:13:02;;;;;;;15.63;10.30;;;;;;;7.59;74.45;99875.23;1676888;85;21749;-68
2021/04/07 06:15:35;;;;;;;14.33;10.05;;;;;;;7.51;75.33;99869.34;1677365;85;21975;-68
2021/04/07 06:18:09;;;;;;;13.38;9.93;;;;;;;7.43;75.84;99851.73;1676843;85;21259;-63
2021/04/07 06:20:45;;;;;;;16.20;10.23;;;;;;;7.38;76.79;99851.75;1676567;85;21189;-63
2021/04/07 06:23:20;;;;;;;13.53;10.18;;;;;;;7.29;77.62;99848.14;1676856;85;21235;-62
2021/04/07 06:30:04;;;;;;;14.78;9.58;;;;;;;7.21;78.93;99806.77;1678457;85;21208;-63
2021/04/07 06:32:38;;;;;;;12.80;9.43;;;;;;;7.17;79.59;99768.91;1678686;85;21459;-62
2021/04/07 06:35:13;;;;;;;19.50;11.55;;;;;;;7.14;80.03;99784.80;1677243;85;21314;-63
2021/04/07 06:37:47;;;;;;;23.33;12.57;;;;;;;7.11;80.53;99743.39;1677228;85;21314;-62
2021/04/07 06:40:20;;;;;;;18.63;12.27;;;;;;;7.11;81.05;99748.13;1677038;85;21611;-60
2021/04/07 06:42:54;;;;;;;19.92;12.25;;;;;;;7.13;81.37;99734.50;1677090;85;21463;-63
2021/04/07 06:45:28;;;;;;;21.15;11.25;;;;;;;7.15;81.65;99717.45;1646073;85;21374;-62
2021/04/07 06:48:02;;;;;;;17.35;11.55;;;;;;;7.20;81.95;99692.70;1677127;85;22030;-64
2021/04/07 06:50:38;;;;;;;23.15;12.80;;;;;;;7.26;81.95;99701.28;1676756;85;21368;-68
2021/04/07 06:53:12;;;;;;;17.42;11.68;;;;;;;7.31;82.01;99718.64;1677351;85;21251;-68
2021/04/07 06:55:47;;;;;;;16.77;11.45;;;;;;;7.35;82.17;99716.16;1679567;84;22159;-61
2021/04/07 06:58:21;;;;;;;;;;;;;;;7.36;82.53;99724.77;1684205;85;21589;-68
2021/04/07 07:00:56;;;;;;;13.95;10.38;;;;;;;7.34;82.69;99709.28;1684494;85;20340;-68
2021/04/07 07:07:41;;;;;;;14.40;10.40;;;;;;;7.35;82.63;99716.63;1684796;85;21168;-66
2021/04/07 07:10:17;;;;;;;13.93;10.28;;;;;;;7.38;82.63;99700.25;1680907;85;21326;-67
2021/04/07 07:12:50;;;;;;;15.38;9.70;;;;;;;7.40;82.32;99689.72;1682015;85;21318;-66
2021/04/07 07:15:24;;;;;;;13.30;9.63;;;;;;;7.43;82.40;99688.14;1682023;85;21224;-64
2021/04/07 07:21:56;;;;;;;15.90;10.88;;;;;;;7.52;82.72;99673.06;1676754;85;20458;-64
2021/04/07 07:24:37;;;;;;;16.32;10.95;;;;;;;7.59;82.64;99704.14;1678670;85;21329;-62
2021/04/07 07:27:12;;;;;;;14.23;10.45;;;;;;;7.71;82.46;99715.29;1681904;85;22033;-61
2021/04/07 07:29:56;;;;;;;15.30;10.28;;;;;;;7.85;82.28;99679.75;1684076;85;21275;-62
2021/04/07 07:32:38;;;;;;;14.58;9.43;;;;;;;7.98;81.89;99682.92;1681078;85;21354;-62
2021/04/07 07:35:15;;;;;;;12.37;10.13;;;;;;;8.08;81.52;99685.08;1681185;85;21264;-70
2021/04/07 07:37:48;;;;;;;19.98;11.03;;;;;;;8.15;81.54;99671.38;1681831;85;21326;-67
2021/04/07 07:40:25;;;;;;;15.03;9.45;;;;;;;8.22;80.98;99691.69;1681119;85;21212;-67
2021/04/07 07:42:59;;;;;;;14.80;10.23;;;;;;;8.29;80.73;99683.23;1681821;85;21329;-68
2021/04/07 07:49:44;;;;;;;17.80;12.28;;;;;;;8.41;80.59;99712.61;1666241;85;21198;-72
2021/04/07 07:52:37;;;;;;;16.77;10.00;;;;;;;8.50;81.31;99653.13;1680174;85;21192;-69
2021/04/07 07:55:18;;;;;;;18.42;12.13;;;;;;;8.51;81.65;99645.63;1681736;85;21373;-61
2021/04/07 07:57:58;;;;;;;;;;;;;;;8.48;82.25;99639.38;1685748;84;21806;-66
2021/04/07 08:00:31;;;;;;;13.78;10.13;;;;;;;8.44;82.73;99661.02;1682291;85;20305;-63
2021/04/07 08:07:15;;;;;;;13.93;9.83;;;;;;;8.51;83.77;99645.16;1682531;85;21258;-63
2021/04/07 08:09:49;;;;;;;13.83;10.00;;;;;;;8.69;84.52;99651.81;1681852;85;21314;-66
2021/04/07 08:16:34;;;;;;;13.08;10.00;;;;;;;9.70;84.86;99604.40;1680715;85;21941;-69
2021/04/07 08:19:08;;;;;;;13.80;9.48;;;;;;;10.20;82.04;99602.17;1682011;85;21539;-72
2021/04/07 08:21:45;;;;;;;10.45;8.23;;;;;;;10.25;80.73;99623.95;1680759;85;21325;-65
2021/04/07 08:28:29;;;;;;;14.30;8.83;;;;;;;10.03;79.88;99606.91;1683276;85;21144;-66
2021/04/07 08:31:04;;;;;;;12.82;8.85;;;;;;;9.97;80.37;99586.08;1682106;85;21330;-62
2021/04/07 08:33:39;;;;;;;10.63;8.40;;;;;;;9.98;80.68;99600.78;1683353;85;21330;-69
2021/04/07 08:36:12;;;;;;;10.40;8.23;;;;;;;9.98;81.06;99556.33;1675222;85;21284;-65
2021/04/07 08:38:45;;;;;;;10.88;8.35;;;;;;;10.04;80.61;99566.20;1675055;85;21633;-63
2021/04/07 08:41:25;;;;;;;14.78;8.90;;;;;;;10.06;80.22;99552.49;1678399;85;21322;-63
2021/04/07 08:44:02;;;;;;;12.60;8.50;;;;;;;10.14;80.26;99558.31;1681908;85;21513;-61
2021/04/07 08:46:54;;;;;;;13.30;8.88;;;;;;;10.24;79.62;99540.76;1680937;85;21392;-60
2021/04/07 08:49:36;;;;;;;10.98;8.35;;;;;;;10.29;79.21;99545.05;1674970;85;21712;-64
2021/04/07 08:56:11;;;;;;;17.60;11.60;;;;;;;10.31;79.01;99512.19;1680899;85;21197;-62
2021/04/07 08:59:03;;;;;;;12.53;7.50;;;;;;;10.36;78.99;99500.30;1678679;85;21838;-63
2021/04/07 09:01:38;;;;;;;10.90;7.65;;;;;;;10.40;78.61;99497.70;1671944;85;21542;-65
2021/04/07 09:08:26;;;;;;;14.90;9.05;;;;;;;10.60;77.89;99510.11;1675056;85;21152;-62
2021/04/07 09:11:00;;;;;;;11.85;7.80;;;;;;;10.78;77.57;99533.94;1674898;85;21196;-61
2021/04/07 09:13:37;;;;;;;10.82;8.10;;;;;;;10.88;77.60;99511.58;1674281;85;21378;-62
2021/04/07 09:16:10;;;;;;;13.30;7.50;;;;;;;10.97;77.68;99484.44;1674806;85;21347;-60
2021/04/07 09:18:45;;;;;;;9.67;7.00;;;;;;;11.08;77.92;99472.36;1675026;85;21327;-60
2021/04/07 09:21:22;;;;;;;11.20;7.20;;;;;;;11.19;77.87;99484.37;1674673;85;21331;-60
2021/04/07 09:24:02;;;;;;;12.18;7.35;;;;;;;11.35;77.82;99500.13;1673704;85;21346;-60
2021/04/07 09:26:41;;;;;;;9.35;6.80;;;;;;;11.61;77.74;99489.06;1674964;85;21342;-60
2021/04/07 09:29:15;;;;;;;13.50;6.97;;;;;;;11.89;77.31;99516.66;1675833;85;21338;-61
2021/04/07 09:36:03;;;;;;;10.28;6.67;;;;;;;12.45;76.18;99460.73;1684746;85;21140;-62
2021/04/07 09:39:29;;;;;;;8.55;6.12;;;;;;;12.90;74.86;99459.31;1673575;85;21293;-62
2021/04/07 09:42:03;;;;;;;9.08;5.92;;;;;;;13.33;74.23;99433.33;1674011;85;21458;-58
2021/04/07 09:49:03;;;;;;;10.63;5.70;;;;;;;14.07;73.34;99448.90;1684659;85;21167;-61
2021/04/07 09:55:48;;;;;;;7.72;4.75;;;;;;;14.29;70.51;99403.78;1681517;85;21132;-59
2021/04/07 10:02:13;;;;;;;9.53;6.30;;;;;;;14.24;70.15;99403.50;1680022;83;21502;-66
2021/04/07 10:04:46;;;;;;;14.10;5.10;;;;;;;14.22;69.73;99395.80;1682896;83;21509;-67
2021/04/07 10:07:26;;;;;;;11.78;5.20;;;;;;;14.21;69.29;99405.20;1681966;84;21366;-62
2021/04/07 10:10:01;;;;;;;10.25;4.65;;;;;;;14.12;69.59;99379.44;1682330;85;21314;-58
2021/04/07 10:16:45;;;;;;;8.55;4.47;;;;;;;14.21;69.41;99355.98;1681182;85;21187;-61
2021/04/07 10:19:18;;;;;;;;;;;;;;;14.29;69.72;99344.05;1679984;85;21875;-64
2021/04/07 10:26:03;;;;;;;10.65;4.83;;;;;;;14.50;69.66;99337.58;1683451;84;21602;-64
2021/04/07 10:28:37;;;;;;;14.18;4.83;;;;;;;14.69;70.14;99347.55;1663536;85;22131;-68
2021/04/07 10:35:25;;;;;;;12.20;4.95;;;;;;;14.81;68.80;99330.27;1682078;85;21262;-65
2021/04/07 10:38:07;;;;;;;10.65;5.08;;;;;;;14.81;69.65;99345.25;1681232;85;21498;-61
2021/04/07 10:40:44;;;;;;;12.95;4.78;;;;;;;14.80;69.17;99327.33;1680852;85;21292;-63
2021/04/07 10:47:35;;;;;;;15.60;5.33;;;;;;;14.79;69.76;99326.18;1680421;85;21302;-60
2021/04/07 10:50:11;;;;;;;10.60;5.33;;;;;;;14.89;69.87;99353.06;1679967;85;21353;-61
2021/04/07 10:52:47;;;;;;;11.40;4.87;;;;;;;14.89;69.18;99336.42;1681336;85;21228;-69
2021/04/07 10:55:25;;;;;;;12.50;5.12;;;;;;;14.92;69.20;99340.02;1681734;85;21431;-60
2021/04/07 10:58:00;;;;;;;13.88;6.22;;;;;;;14.96;68.97;99320.18;1682408;85;21274;-60
2021/04/07 11:00:36;;;;;;;16.02;6.92;;;;;;;15.10;68.83;99346.50;1682167;85;22124;-59
2021/04/07 11:03:09;;;;;;;13.35;5.15;;;;;;;15.25;67.73;99326.18;1665090;85;22036;-63
2021/04/07 11:05:45;;;;;;;11.30;4.50;;;;;;;15.27;67.14;99314.94;1682007;85;21327;-60
2021/04/07 11:08:18;;;;;;;14.10;6.12;;;;;;;15.22;67.44;99302.81;1680256;85;21559;-60
2021/04/07 11:10:52;;;;;;;;;;;;;;;15.22;67.30;99288.81;1682810;85;21671;-59
2021/04/07 11:13:26;;;;;;;14.37;4.73;;;;;;;15.31;67.28;99285.03;1681769;85;20387;-62
2021/04/07 11:16:12;;;;;;;15.10;6.20;;;;;;;15.38;66.65;99306.51;1655311;85;22011;-66
2021/04/07 11:18:46;;;;;;;18.50;5.60;;;;;;;15.41;66.60;99277.13;1681329;85;21395;-65
2021/04/07 11:21:19;;;;;;;11.18;5.50;;;;;;;15.41;66.16;99261.30;1682170;85;21650;-62
2021/04/07 11:23:53;;;;;;;15.25;5.65;;;;;;;15.35;65.78;99296.36;1681591;85;21565;-60
2021/04/07 11:26:26;;;;;;;15.78;5.65;;;;;;;15.32;65.83;99291.45;1682502;85;21333;-62
2021/04/07 11:33:11;;;;;;;12.33;5.15;;;;;;;15.31;66.54;99290.31;1681180;85;22018;-67
2021/04/07 11:35:54;;;;;;;13.40;6.05;;;;;;;15.44;67.18;99278.10;1679756;85;22110;-64
2021/04/07 11:38:22;;;;;;;16.20;7.00;;;;;;;15.62;66.99;99260.99;1684129;85;21215;-63
2021/04/07 11:41:45;;;;;;;13.65;5.25;;;;;;;15.75;65.28;99270.30;1683154;85;21220;-63
2021/04/07 11:43:46;;;;;;;9.40;4.50;;;;;;;15.83;65.24;99271.48;1678532;85;21525;-68
2021/04/07 11:46:10;;;;;;;11.93;5.80;;;;;;;15.88;63.47;99285.72;1680032;85;21426;-64
2021/04/07 11:48:45;;;;;;;16.55;5.87;;;;;;;15.93;63.69;99246.89;1681542;85;21200;-63
2021/04/07 11:51:18;;;;;;;9.58;5.08;;;;;;;16.03;63.70;99263.98;1682056;85;21251;-61
2021/04/07 11:53:52;;;;;;;15.63;6.70;;;;;;;16.11;63.12;99261.20;1681456;85;21270;-60
2021/04/07 11:56:26;;;;;;;19.52;5.97;;;;;;;16.15;63.26;99253.19;1685038;85;21562;-66
2021/04/07 11:59:00;;;;;;;19.32;7.00;;;;;;;16.21;62.91;99254.23;1684935;85;21318;-65
2021/04/07 12:01:34;;;;;;;12.53;5.47;;;;;;;16.25;62.60;99254.64;1682854;85;21269;-63
2021/04/07 12:04:07;;;;;;;16.02;5.67;;;;;;;16.30;61.33;99274.69;1682123;84;21346;-67
2021/04/07 12:06:42;;;;;;;14.25;5.53;;;;;;;16.35;61.44;99277.05;1682016;85;21332;-64
2021/04/07 12:09:15;;;;;;;14.38;6.15;;;;;;;16.41;61.24;99275.44;1681492;85;21374;-66
2021/04/07 12:11:48;;;;;;;20.25;7.92;;;;;;;16.50;60.92;99263.18;1675425;85;21326;-65
2021/04/07 12:14:21;;;;;;;12.47;5.42;;;;;;;16.52;60.19;99269.14;1672303;85;21275;-65
2021/04/07 12:16:54;;;;;;;17.07;4.80;;;;;;;16.46;60.04;99280.45;1677347;85;21283;-60
2021/04/07 12:19:28;;;;;;;14.80;5.50;;;;;;;16.39;60.41;99288.84;1677181;85;21514;-66
2021/04/07 12:22:01;;;;;;;18.25;5.58;;;;;;;16.36;60.74;99284.48;1677497;85;21271;-63
2021/04/07 12:24:34;;;;;;;21.63;5.90;;;;;;;16.43;59.81;99262.34;1677582;85;21196;-62
2021/04/07 12:27:08;;;;;;;13.98;6.00;;;;;;;16.43;59.81;99262.34;1678184;85;21730;-67
2021/04/07 12:29:41;;;;;;;18.87;5.90;;;;;;;16.39;59.71;99283.56;1678127;85;21247;-65
2021/04/07 12:32:14;;;;;;;13.68;5.08;;;;;;;16.30;60.08;99259.66;1677470;85;21227;-65
2021/04/07 12:34:47;;;;;;;13.75;5.75;;;;;;;16.27;60.77;99276.39;1677624;85;21251;-69
2021/04/07 12:37:24;;;;;;;13.62;5.08;;;;;;;16.30;61.13;99253.55;1677284;85;21211;-67
2021/04/07 12:39:57;;;;;;;19.23;5.92;;;;;;;16.41;61.52;99251.16;1676669;85;21235;-67
2021/04/07 12:42:30;;;;;;;16.10;5.57;;;;;;;16.52;60.33;99262.53;1677748;85;21259;-65
2021/04/07 12:45:06;;;;;;;11.73;5.83;;;;;;;16.55;59.83;99266.61;1676736;85;21263;-60
2021/04/07 12:47:41;;;;;;;16.15;5.75;;;;;;;16.45;59.71;99245.81;1677540;85;21219;-59
2021/04/07 12:50:15;;;;;;;16.27;6.43;;;;;;;16.36;60.27;99269.95;1676803;85;21208;-62
2021/04/07 12:52:47;;;;;;;;;;;;;;;16.30;60.53;99249.59;1679693;85;21215;-61
2021/04/07 12:55:21;;;;;;;17.95;7.42;;;;;;;16.26;61.10;99253.65;1676537;85;20197;-66
2021/04/07 12:57:54;;;;;;;17.87;6.28;;;;;;;16.23;61.80;99248.25;1678478;85;21334;-71
2021/04/07 13:00:29;;;;;;;20.03;6.60;;;;;;;16.19;62.12;99247.81;1677285;85;21251;-66
2021/04/07 13:03:02;;;;;;;17.23;6.35;;;;;;;16.15;62.41;99237.84;1677225;84;21223;-64
2021/04/07 13:05:35;;;;;;;14.90;6.10;;;;;;;16.14;62.97;99252.08;1676784;85;21220;-60
2021/04/07 13:08:08;;;;;;;19.90;5.97;;;;;;;16.12;62.14;99243.53;1677388;85;21927;-61
2021/04/07 13:10:41;;;;;;;;;;;;;;;16.07;61.71;99248.59;1678102;85;21212;-65
2021/04/07 13:13:14;;;;;;;10.40;5.95;;;;;;;16.01;61.74;99210.58;1679412;85;20359;-61
2021/04/07 13:15:48;;;;;;;14.20;5.65;;;;;;;15.98;62.22;99212.28;1676558;85;21243;-68
2021/04/07 13:18:22;;;;;;;14.60;5.90;;;;;;;16.00;62.43;99188.34;1677106;85;21208;-68
2021/04/07 13:21:14;;;;;;;11.50;5.80;;;;;;;16.01;62.60;99206.61;1676606;85;21232;-62
2021/04/07 13:23:46;;;;;;;12.45;6.00;;;;;;;16.03;62.55;99195.34;1675935;85;21216;-64
2021/04/07 13:26:20;;;;;;;13.80;5.62;;;;;;;16.02;62.51;99212.22;1676827;85;21263;-70
2021/04/07 13:28:57;;;;;;;16.12;6.10;;;;;;;15.99;62.43;99170.36;1678734;85;21295;-61
2021/04/07 13:31:30;;;;;;;20.08;6.33;;;;;;;15.95;62.32;99167.78;1676411;85;21526;-65
2021/04/07 13:34:06;;;;;;;12.65;5.60;;;;;;;15.96;62.39;99161.51;1677457;85;22069;-62